Time;durP1;ratioP1;P1;durP2;ratioP2;P2;SDS_P1;SDS_P2;PMS_P1;PMS_P2;Temp;Humidity;BMP_temperature;BMP_pressure;BME280_temperature;BME280_humidity;BME280_pressure;Samples;Min_cycle;Max_cycle;Signal;HPM_P1;HPM_P2
2022/04/24 00:00:09;;;;;;;39.85;21.75;;;;;;;7.27;70.11;98265.95;1784425;80;20983;-36
2022/04/24 00:02:34;;;;;;;;;;;;;;;7.25;70.07;98261.29;1787065;80;20995;-36
2022/04/24 00:05:00;;;;;;;42.75;22.42;;;;;;;7.18;71.10;98259.48;1784134;80;20108;-36
2022/04/24 00:07:26;;;;;;;38.85;21.48;;;;;;;7.20;70.72;98268.55;1784463;80;20963;-37
2022/04/24 00:09:52;;;;;;;53.02;22.98;;;;;;;7.17;71.05;98268.27;1784388;80;21015;-37
2022/04/24 00:12:18;;;;;;;52.78;23.12;;;;;;;7.15;71.03;98266.22;1784421;80;20968;-36
2022/04/24 00:14:46;;;;;;;46.58;22.65;;;;;;;7.15;70.54;98266.22;1784508;80;21002;-37
2022/04/24 00:17:15;;;;;;;48.65;22.05;;;;;;;7.13;70.84;98259.38;1783864;80;21508;-36
2022/04/24 00:19:40;;;;;;;40.73;22.32;;;;;;;7.10;71.18;98255.18;1784285;80;20963;-36
2022/04/24 00:22:06;;;;;;;39.25;21.73;;;;;;;7.08;71.36;98251.81;1784433;80;21453;-37
2022/04/24 00:24:32;;;;;;;42.05;22.70;;;;;;;7.04;71.28;98252.90;1784471;80;21512;-37
2022/04/24 00:26:59;;;;;;;48.78;22.67;;;;;;;7.03;70.93;98252.54;1784460;80;21822;-35
2022/04/24 00:29:25;;;;;;;49.13;23.00;;;;;;;7.03;70.70;98255.16;1784664;80;20977;-36
2022/04/24 00:31:51;;;;;;;45.92;23.42;;;;;;;7.01;71.05;98252.62;1784429;80;21713;-37
2022/04/24 00:34:17;;;;;;;47.90;22.42;;;;;;;7.00;70.97;98252.23;1784385;80;20976;-42
2022/04/24 00:36:45;;;;;;;37.45;22.32;;;;;;;6.96;71.14;98255.13;1784417;80;20983;-37
2022/04/24 00:39:11;;;;;;;52.43;22.10;;;;;;;6.95;70.16;98250.38;1784342;80;20967;-36
2022/04/24 00:41:49;;;;;;;43.20;22.35;;;;;;;6.91;70.59;98247.09;1784393;80;21002;-37
2022/04/24 00:44:18;;;;;;;35.05;20.72;;;;;;;6.89;70.43;98239.81;1784518;80;21017;-40
2022/04/24 00:46:58;;;;;;;38.63;21.35;;;;;;;6.88;70.63;98239.89;1784346;80;21540;-36
2022/04/24 00:49:25;;;;;;;41.18;22.17;;;;;;;6.88;71.11;98236.80;1784348;80;21483;-37
2022/04/24 00:51:52;;;;;;;36.35;20.90;;;;;;;6.85;71.14;98242.20;1784442;80;20960;-37
2022/04/24 00:54:18;;;;;;;33.83;20.90;;;;;;;6.84;70.83;98243.14;1784487;80;20987;-36
2022/04/24 00:56:44;;;;;;;37.00;22.07;;;;;;;6.82;71.04;98245.00;1784370;80;21021;-38
2022/04/24 00:59:12;;;;;;;33.92;21.52;;;;;;;6.83;71.10;98242.75;1784404;80;20948;-36
2022/04/24 01:01:40;;;;;;;45.52;22.35;;;;;;;6.81;71.66;98238.55;1784436;80;20983;-38
2022/04/24 01:04:08;;;;;;;37.70;21.77;;;;;;;6.77;71.53;98239.19;1784329;80;21497;-37
2022/04/24 01:06:37;;;;;;;;;;;;;;;6.71;71.86;98238.21;1787058;80;21011;-36
2022/04/24 01:09:23;;;;;;;46.20;24.27;;;;;;;6.61;72.56;98235.75;1783664;80;20111;-37
2022/04/24 01:11:52;;;;;;;41.70;23.20;;;;;;;6.62;72.28;98233.50;1784598;80;20975;-37
2022/04/24 01:14:20;;;;;;;37.90;22.32;;;;;;;6.59;72.21;98238.45;1784026;80;20976;-36
2022/04/24 01:16:47;;;;;;;43.15;22.45;;;;;;;6.55;72.80;98236.95;1784378;80;20952;-37
2022/04/24 01:19:14;;;;;;;44.10;23.27;;;;;;;6.50;72.63;98229.34;1784524;80;21136;-38
2022/04/24 01:21:42;;;;;;;46.20;24.67;;;;;;;6.47;72.69;98229.98;1784590;80;20982;-37
2022/04/24 01:24:09;;;;;;;44.53;28.30;;;;;;;6.45;72.89;98226.15;1784287;80;21027;-37
2022/04/24 01:26:35;;;;;;;52.90;30.23;;;;;;;6.44;72.30;98227.09;1784622;80;20980;-37
2022/04/24 01:29:03;;;;;;;94.67;68.25;;;;;;;6.42;73.00;98225.47;1784414;80;21503;-35
2022/04/24 01:31:29;;;;;;;75.55;45.70;;;;;;;6.40;73.21;98219.02;1784338;80;20964;-37
2022/04/24 01:33:55;;;;;;;108.27;73.92;;;;;;;6.38;72.92;98218.27;1784367;80;20964;-38
2022/04/24 01:36:21;;;;;;;99.10;66.97;;;;;;;6.36;73.06;98221.44;1784368;80;21492;-37
2022/04/24 01:38:46;;;;;;;115.03;79.65;;;;;;;6.36;73.44;98220.13;1784328;80;21483;-35
2022/04/24 01:41:12;;;;;;;116.20;84.15;;;;;;;6.35;73.39;98223.69;1784435;80;20978;-37
2022/04/24 01:43:38;;;;;;;91.67;63.68;;;;;;;6.37;73.77;98218.35;1784320;80;21023;-37
2022/04/24 01:46:06;;;;;;;96.28;59.13;;;;;;;6.36;73.42;98215.38;1784339;80;20966;-37
2022/04/24 01:48:35;;;;;;;94.47;62.50;;;;;;;6.36;73.34;98212.30;1786224;80;21057;-37
2022/04/24 01:51:04;;;;;;;77.75;48.48;;;;;;;6.37;72.38;98213.12;1790055;80;21093;-37
2022/04/24 01:53:30;;;;;;;56.40;30.55;;;;;;;6.38;72.93;98218.27;1790121;80;20990;-36
2022/04/24 01:56:05;;;;;;;37.78;20.92;;;;;;;6.44;72.35;98213.17;1790130;80;20985;-38
2022/04/24 01:58:31;;;;;;;32.53;18.02;;;;;;;6.48;72.11;98206.40;1790130;80;20986;-36
2022/04/24 02:00:57;;;;;;;33.25;17.17;;;;;;;6.50;71.53;98213.68;1790135;80;21014;-37
2022/04/24 02:03:24;;;;;;;32.17;17.77;;;;;;;6.54;71.36;98209.96;1790118;80;20951;-37
2022/04/24 02:05:51;;;;;;;37.10;18.27;;;;;;;6.59;71.40;98218.02;1790204;80;20987;-38
2022/04/24 02:08:16;;;;;;;32.40;16.85;;;;;;;6.61;71.26;98214.86;1790091;80;21095;-36
2022/04/24 02:10:42;;;;;;;39.95;17.65;;;;;;;6.66;70.98;98218.06;1790130;80;20951;-38
2022/04/24 02:13:09;;;;;;;33.83;17.77;;;;;;;6.67;70.63;98211.41;1790108;80;21014;-37
2022/04/24 02:15:35;;;;;;;31.50;18.57;;;;;;;6.65;70.47;98218.97;1790121;80;20986;-37
2022/04/24 02:18:01;;;;;;;37.13;19.30;;;;;;;6.64;70.72;98215.53;1790162;80;20959;-36
2022/04/24 02:20:31;;;;;;;38.33;23.03;;;;;;;6.63;70.75;98221.67;1790356;80;21591;-36
2022/04/24 02:23:01;;;;;;;44.77;25.62;;;;;;;6.63;70.91;98220.84;1790059;80;20995;-36
2022/04/24 02:25:28;;;;;;;37.25;24.32;;;;;;;6.63;70.48;98215.14;1756034;81;20979;-38
2022/04/24 02:27:56;;;;;;;39.88;23.62;;;;;;;6.61;70.56;98217.00;1787072;80;20974;-38
2022/04/24 02:30:25;;;;;;;48.10;25.70;;;;;;;6.58;70.48;98220.25;1826147;78;20962;-38
2022/04/24 02:32:51;;;;;;;46.92;25.45;;;;;;;6.54;70.66;98220.41;1826135;78;21546;-38
2022/04/24 02:35:19;;;;;;;40.28;25.45;;;;;;;6.48;71.56;98216.84;1826206;78;20991;-37
2022/04/24 02:37:44;;;;;;;;;;;;;;;6.46;71.69;98216.09;1792868;80;20994;-37
2022/04/24 02:43:24;;;;;;;46.65;24.80;;;;;;;6.27;72.80;98211.03;1818328;79;23031;-36
2022/04/24 02:45:50;;;;;;;42.70;24.67;;;;;;;6.21;72.21;98211.84;1791632;80;21058;-36
2022/04/24 02:48:16;;;;;;;40.17;24.23;;;;;;;6.15;72.50;98215.17;1791788;80;21498;-36
2022/04/24 02:50:41;;;;;;;39.08;24.30;;;;;;;6.14;72.50;98213.47;1791774;80;21057;-36
2022/04/24 02:53:07;;;;;;;45.88;25.70;;;;;;;6.08;72.80;98212.51;1792421;80;20991;-35
2022/04/24 02:55:33;;;;;;;39.42;24.85;;;;;;;6.04;73.32;98213.61;1792630;80;21053;-38
2022/04/24 02:57:59;;;;;;;39.42;24.55;;;;;;;6.01;73.66;98210.33;1792932;80;21066;-37
2022/04/24 03:00:39;;;;;;;38.63;23.18;;;;;;;5.95;73.82;98204.50;1792951;80;20998;-35
2022/04/24 03:02:55;;;;;;;41.13;22.70;;;;;;;5.97;73.62;98204.42;1789850;80;21112;-40
2022/04/24 03:05:23;;;;;;;37.03;21.33;;;;;;;5.97;73.69;98200.52;1792599;80;21074;-37
2022/04/24 03:07:50;;;;;;;34.48;21.85;;;;;;;6.01;73.28;98199.88;1792942;80;20998;-37
2022/04/24 03:10:16;;;;;;;37.95;21.45;;;;;;;5.96;73.69;98198.34;1792973;80;21483;-37
2022/04/24 03:12:44;;;;;;;40.60;21.37;;;;;;;5.94;73.66;98195.41;1793195;80;21021;-37
2022/04/24 03:15:12;;;;;;;38.83;22.35;;;;;;;5.93;73.87;98191.11;1793033;80;21604;-37
2022/04/24 03:17:38;;;;;;;38.78;20.12;;;;;;;5.92;74.04;98187.66;1793037;80;20978;-35
2022/04/24 03:20:08;;;;;;;33.48;19.75;;;;;;;5.91;74.20;98184.70;1792959;80;21023;-36
2022/04/24 03:22:34;;;;;;;30.00;18.55;;;;;;;5.92;74.02;98183.75;1792313;80;21452;-37
2022/04/24 03:25:01;;;;;;;34.63;18.30;;;;;;;5.89;74.00;98183.08;1793006;80;20991;-36
2022/04/24 03:27:26;;;;;;;32.25;16.55;;;;;;;5.87;73.50;98181.84;1793053;80;21019;-38
2022/04/24 03:29:52;;;;;;;31.45;17.48;;;;;;;5.86;73.54;98179.34;1792941;80;21030;-42
2022/04/24 03:32:18;;;;;;;30.35;17.98;;;;;;;5.88;73.53;98181.41;1792873;80;20963;-37
2022/04/24 03:34:44;;;;;;;32.00;16.90;;;;;;;5.89;73.26;98177.86;1792929;80;21506;-36
2022/04/24 03:37:10;;;;;;;30.70;17.27;;;;;;;5.92;73.14;98173.78;1792932;80;20991;-36
2022/04/24 03:39:36;;;;;;;31.70;16.52;;;;;;;5.91;73.12;98173.39;1792894;80;20994;-37
2022/04/24 03:42:04;;;;;;;30.97;16.20;;;;;;;5.93;72.55;98176.76;1790927;80;21070;-36
2022/04/24 03:44:32;;;;;;;33.35;16.45;;;;;;;5.93;72.84;98172.84;1787655;80;20990;-36
2022/04/24 03:46:58;;;;;;;26.10;14.40;;;;;;;5.98;72.66;98181.30;1787804;80;21152;-37
2022/04/24 03:49:23;;;;;;;25.40;14.00;;;;;;;6.04;72.81;98175.77;1787648;80;21095;-36
2022/04/24 03:51:49;;;;;;;21.25;12.50;;;;;;;6.04;72.58;98174.46;1787604;80;20995;-37
2022/04/24 03:54:15;;;;;;;26.20;13.75;;;;;;;6.00;72.64;98175.53;1787192;80;20993;-36
2022/04/24 03:56:40;;;;;;;25.05;15.05;;;;;;;6.03;72.22;98168.85;1787017;80;21034;-37
2022/04/24 03:59:06;;;;;;;22.48;13.08;;;;;;;6.00;72.32;98161.65;1787139;80;21034;-36
2022/04/24 04:01:32;;;;;;;24.80;13.93;;;;;;;5.96;72.79;98167.03;1787190;80;20987;-36
2022/04/24 04:03:58;;;;;;;24.18;13.95;;;;;;;5.95;73.07;98165.36;1787199;80;21460;-37
2022/04/24 04:06:23;;;;;;;23.90;14.23;;;;;;;5.92;73.16;98164.66;1787164;80;21515;-36
2022/04/24 04:08:50;;;;;;;21.30;13.25;;;;;;;5.95;73.24;98164.50;1787083;80;20991;-36
2022/04/24 04:11:16;;;;;;;24.05;13.38;;;;;;;5.96;72.33;98162.28;1787286;80;21026;-38
2022/04/24 04:13:41;;;;;;;28.52;15.03;;;;;;;5.94;72.78;98160.19;1787039;80;21003;-36
2022/04/24 04:16:07;;;;;;;24.63;14.78;;;;;;;5.97;72.99;98162.67;1787161;80;21045;-36
2022/04/24 04:18:33;;;;;;;29.10;14.95;;;;;;;6.00;72.47;98161.65;1787065;80;21018;-38
2022/04/24 04:20:59;;;;;;;28.50;14.95;;;;;;;5.98;73.26;98160.89;1787056;80;21512;-37
2022/04/24 04:23:25;;;;;;;24.40;14.05;;;;;;;5.98;72.89;98155.67;1787068;80;21128;-38
2022/04/24 04:25:51;;;;;;;28.75;14.23;;;;;;;5.96;73.54;98164.89;1787028;80;21058;-36
2022/04/24 04:28:17;;;;;;;25.60;12.98;;;;;;;5.97;73.46;98162.67;1787130;80;21468;-36
2022/04/24 04:30:42;;;;;;;24.30;13.28;;;;;;;6.00;73.25;98161.65;1787148;80;20991;-36
2022/04/24 04:33:09;;;;;;;25.10;12.37;;;;;;;6.11;72.44;98166.67;1787057;80;21021;-37
2022/04/24 04:35:36;;;;;;;21.07;12.50;;;;;;;6.14;73.27;98170.40;1787480;80;20998;-37
2022/04/24 04:38:02;;;;;;;23.60;12.45;;;;;;;6.22;73.11;98165.22;1787261;80;21610;-37
2022/04/24 04:40:28;;;;;;;22.27;11.45;;;;;;;6.28;73.07;98164.42;1787023;80;20967;-35
2022/04/24 04:42:53;;;;;;;20.62;10.90;;;;;;;6.30;72.82;98169.56;1782157;80;21012;-36
2022/04/24 04:45:19;;;;;;;22.00;10.75;;;;;;;6.34;72.85;98164.07;1778758;81;21030;-37
2022/04/24 04:47:48;;;;;;;18.10;10.25;;;;;;;6.33;73.18;98166.32;1778783;81;21003;-37
2022/04/24 04:50:14;;;;;;;14.83;9.53;;;;;;;6.33;73.45;98156.31;1778755;81;21039;-38
2022/04/24 04:52:40;;;;;;;18.35;9.80;;;;;;;6.36;73.41;98160.07;1778805;81;20959;-38
2022/04/24 04:55:06;;;;;;;17.95;9.80;;;;;;;6.42;73.52;98155.83;1778752;80;21007;-39
2022/04/24 04:57:32;;;;;;;20.45;10.60;;;;;;;6.40;73.74;98157.66;1778771;81;21105;-37
2022/04/24 04:59:58;;;;;;;15.40;9.20;;;;;;;6.49;73.23;98153.69;1778849;81;20980;-38
2022/04/24 05:02:24;;;;;;;19.00;9.98;;;;;;;6.54;73.30;98156.89;1778771;80;21019;-40
2022/04/24 05:04:49;;;;;;;17.90;9.33;;;;;;;6.56;72.95;98158.95;1778788;80;21471;-38
2022/04/24 05:07:15;;;;;;;17.95;10.13;;;;;;;6.58;73.16;98165.39;1778776;80;21504;-37
2022/04/24 05:09:41;;;;;;;18.75;9.58;;;;;;;6.63;73.05;98158.14;1778775;80;21162;-37
2022/04/24 05:12:08;;;;;;;17.07;9.00;;;;;;;6.72;72.42;98164.97;1778747;81;20991;-38
2022/04/24 05:14:34;;;;;;;;;;;;;;;6.75;72.85;98157.88;1781394;80;21429;-39
2022/04/24 05:17:00;;;;;;;15.13;9.03;;;;;;;6.78;73.02;98163.77;1778855;81;20112;-37
2022/04/24 05:19:26;;;;;;;16.00;8.30;;;;;;;6.81;72.80;98162.30;1778809;81;21003;-38
2022/04/24 05:21:53;;;;;;;16.02;7.92;;;;;;;6.84;72.98;98159.95;1778838;81;21473;-37
2022/04/24 05:24:19;;;;;;;11.83;8.10;;;;;;;6.89;72.67;98162.71;1779040;80;20999;-38
2022/04/24 05:26:44;;;;;;;12.55;8.10;;;;;;;6.94;72.00;98159.81;1778734;80;21223;-38
2022/04/24 05:29:10;;;;;;;15.60;8.83;;;;;;;7.00;72.56;98171.67;1778750;81;21011;-37
2022/04/24 05:31:36;;;;;;;17.92;8.48;;;;;;;7.06;72.78;98164.80;1778728;81;20960;-38
2022/04/24 05:34:02;;;;;;;16.50;8.90;;;;;;;7.11;72.54;98168.82;1778728;80;21442;-37
2022/04/24 05:36:28;;;;;;;13.65;8.50;;;;;;;7.15;72.43;98168.17;1778919;81;20994;-37
2022/04/24 05:38:54;;;;;;;14.58;9.15;;;;;;;7.19;72.39;98169.66;1778759;80;20983;-37
2022/04/24 05:41:20;;;;;;;13.45;8.40;;;;;;;7.24;72.03;98168.06;1778712;80;21455;-39
2022/04/24 05:43:46;;;;;;;16.75;8.80;;;;;;;7.29;71.89;98166.89;1778625;81;21067;-38
2022/04/24 05:46:12;;;;;;;13.90;8.28;;;;;;;7.35;71.53;98167.42;1778699;81;20967;-39
2022/04/24 05:48:38;;;;;;;14.73;8.43;;;;;;;7.42;71.48;98172.66;1778763;80;21464;-38
2022/04/24 05:51:04;;;;;;;13.15;8.88;;;;;;;7.47;71.50;98173.23;1778699;81;21538;-37
2022/04/24 05:53:30;;;;;;;16.25;9.05;;;;;;;7.53;71.57;98173.33;1778704;80;20956;-39
2022/04/24 05:55:57;;;;;;;12.80;8.45;;;;;;;7.58;71.40;98176.52;1778859;81;20960;-38
2022/04/24 05:58:23;;;;;;;17.40;9.03;;;;;;;7.65;71.54;98176.03;1778974;81;20987;-36
2022/04/24 06:00:48;;;;;;;14.25;8.23;;;;;;;7.73;71.48;98184.75;1778774;80;21461;-43
2022/04/24 06:03:14;;;;;;;18.60;8.23;;;;;;;7.76;71.65;98182.40;1778759;81;21026;-37
2022/04/24 06:05:40;;;;;;;13.15;8.83;;;;;;;7.85;71.49;98186.59;1778710;80;20964;-37
2022/04/24 06:08:06;;;;;;;11.53;8.28;;;;;;;7.94;71.27;98193.51;1778756;80;20991;-39
2022/04/24 06:10:32;;;;;;;10.85;7.50;;;;;;;7.99;71.27;98189.66;1778716;81;21039;-38
2022/04/24 06:12:58;;;;;;;13.03;7.05;;;;;;;8.08;71.00;98191.70;1778697;80;20963;-38
2022/04/24 06:15:27;;;;;;;14.70;7.78;;;;;;;8.13;70.75;98191.88;1778861;81;21003;-39
2022/04/24 06:17:57;;;;;;;13.03;7.33;;;;;;;8.23;70.57;98200.84;1778665;81;21007;-37
2022/04/24 06:20:24;;;;;;;13.93;7.92;;;;;;;8.28;70.56;98206.64;1778679;80;21013;-38
2022/04/24 06:22:57;;;;;;;;;;;;;;;8.35;70.43;98202.70;1781325;80;21003;-37
2022/04/24 06:25:31;;;;;;;13.08;7.85;;;;;;;8.40;70.44;98209.80;1778777;81;20136;-36
2022/04/24 06:27:58;;;;;;;13.35;7.55;;;;;;;8.48;70.26;98203.23;1777670;80;21072;-39
2022/04/24 06:30:27;;;;;;;12.78;7.58;;;;;;;8.56;70.06;98207.53;1778844;81;20964;-38
2022/04/24 06:32:54;;;;;;;14.23;7.97;;;;;;;8.63;69.90;98215.36;1778643;80;21516;-38
2022/04/24 06:35:21;;;;;;;12.47;7.55;;;;;;;8.70;69.65;98207.48;1778834;81;20991;-37
2022/04/24 06:37:49;;;;;;;14.98;7.83;;;;;;;8.79;69.29;98202.11;1778850;80;20989;-38
2022/04/24 06:40:17;;;;;;;15.88;8.10;;;;;;;8.81;69.26;98204.98;1778816;81;21023;-38
2022/04/24 06:42:55;;;;;;;11.63;7.70;;;;;;;8.86;69.26;98203.39;1780807;80;21504;-38
2022/04/24 06:45:28;;;;;;;14.28;7.70;;;;;;;8.90;69.22;98193.06;1786897;80;21007;-39
2022/04/24 06:48:00;;;;;;;11.85;8.38;;;;;;;8.98;69.04;98189.92;1786977;80;21582;-39
2022/04/24 06:50:28;;;;;;;11.28;8.48;;;;;;;9.02;69.00;98188.77;1786926;80;21055;-38
2022/04/24 06:53:11;;;;;;;14.15;7.67;;;;;;;9.08;68.86;98183.14;1786965;80;20971;-38
2022/04/24 06:55:41;;;;;;;10.23;7.80;;;;;;;9.17;68.56;98182.52;1786901;80;20967;-39
2022/04/24 06:58:08;;;;;;;12.40;7.97;;;;;;;9.28;68.12;98180.94;1786968;80;20971;-39
2022/04/24 07:00:37;;;;;;;10.45;7.30;;;;;;;9.35;68.21;98171.70;1787084;80;21547;-38
2022/04/24 07:03:21;;;;;;;13.62;7.83;;;;;;;9.44;67.93;98168.48;1786985;80;20948;-37
2022/04/24 07:05:48;;;;;;;11.85;7.85;;;;;;;9.54;68.06;98171.30;1786976;80;20991;-38
2022/04/24 07:08:14;;;;;;;12.93;8.40;;;;;;;9.63;67.94;98171.98;1787043;80;20990;-39
2022/04/24 07:10:40;;;;;;;11.33;6.33;;;;;;;9.76;67.42;98183.77;1787038;80;21571;-40
2022/04/24 07:13:07;;;;;;;8.88;6.65;;;;;;;9.84;65.92;98174.91;1787046;80;21508;-38
2022/04/24 07:15:35;;;;;;;7.87;6.90;;;;;;;9.99;66.70;98180.86;1787229;80;20994;-41
2022/04/24 07:18:02;;;;;;;10.93;7.03;;;;;;;10.08;66.71;98178.06;1786941;80;20999;-40
2022/04/24 07:20:29;;;;;;;7.83;6.50;;;;;;;10.17;66.52;98176.09;1787060;80;21540;-41
2022/04/24 07:23:00;;;;;;;11.10;6.60;;;;;;;10.30;66.53;98170.79;1787098;80;21022;-40
2022/04/24 07:25:28;;;;;;;29.70;8.53;;;;;;;10.41;65.92;98167.42;1786996;80;20991;-40
2022/04/24 07:27:54;;;;;;;10.63;7.70;;;;;;;10.48;65.74;98168.17;1787036;80;21049;-41
2022/04/24 07:30:21;;;;;;;13.83;8.25;;;;;;;10.60;65.90;98164.27;1787044;80;20967;-39
2022/04/24 07:32:51;;;;;;;16.65;8.18;;;;;;;10.69;65.47;98164.42;1787202;80;20959;-47
2022/04/24 07:35:20;;;;;;;9.98;7.42;;;;;;;10.80;65.44;98164.12;1787048;80;21061;-40
2022/04/24 07:37:47;;;;;;;11.40;6.92;;;;;;;10.93;64.44;98162.23;1787048;80;21038;-39
2022/04/24 07:40:15;;;;;;;11.48;7.75;;;;;;;11.00;64.38;98156.87;1787067;80;21030;-38
2022/04/24 07:42:57;;;;;;;11.20;7.53;;;;;;;11.10;63.81;98158.36;1785963;80;20986;-42
2022/04/24 07:45:28;;;;;;;8.13;7.03;;;;;;;11.21;63.30;98153.60;1776275;80;20991;-39
2022/04/24 07:47:56;;;;;;;6.17;5.60;;;;;;;11.34;63.38;98150.39;1778653;81;20999;-40
2022/04/24 07:50:24;;;;;;;7.53;6.37;;;;;;;11.45;61.97;98143.81;1778918;81;20991;-38
2022/04/24 07:52:51;;;;;;;6.97;5.95;;;;;;;11.51;60.01;98145.12;1778736;80;21030;-38
2022/04/24 07:55:22;;;;;;;5.92;5.00;;;;;;;11.61;60.61;98140.00;1778926;80;20999;-43
2022/04/24 07:57:49;;;;;;;9.08;5.67;;;;;;;11.67;58.67;98139.02;1778814;81;21031;-40
2022/04/24 08:00:17;;;;;;;;;;;;;;;11.74;60.02;98135.45;1781519;80;21038;-37
2022/04/24 08:02:54;;;;;;;6.67;5.05;;;;;;;11.84;58.86;98133.77;1778378;80;20131;-39
2022/04/24 08:05:39;;;;;;;6.70;5.03;;;;;;;11.92;58.34;98126.60;1778879;81;21066;-39
2022/04/24 08:08:08;;;;;;;5.15;4.55;;;;;;;12.04;58.95;98127.41;1771592;79;20987;-39
2022/04/24 08:10:38;;;;;;;6.17;4.70;;;;;;;12.13;58.96;98127.98;1748026;82;21029;-38
2022/04/24 08:13:06;;;;;;;5.20;4.37;;;;;;;12.25;59.03;98127.00;1747055;82;21038;-37
2022/04/24 08:15:34;;;;;;;8.63;4.47;;;;;;;12.33;58.29;98120.28;1748147;82;21548;-37
2022/04/24 08:18:01;;;;;;;6.75;4.58;;;;;;;12.44;58.52;98117.59;1748156;82;20979;-39
2022/04/24 08:20:27;;;;;;;9.57;5.27;;;;;;;12.65;57.88;98119.80;1748366;82;21467;-39
2022/04/24 08:22:54;;;;;;;4.90;4.40;;;;;;;12.65;57.88;98119.80;1747983;82;21031;-39
2022/04/24 08:25:23;;;;;;;;;;;;;;;12.75;56.37;98119.89;1750608;82;20987;-39
2022/04/24 08:27:50;;;;;;;5.90;4.12;;;;;;;12.80;54.49;98116.36;1748031;82;20400;-40
2022/04/24 08:30:20;;;;;;;;;;;;;;;12.93;56.42;98116.66;1750681;82;21003;-37
2022/04/24 08:32:47;;;;;;;5.28;4.50;;;;;;;13.02;55.49;98119.39;1748033;82;20138;-39
2022/04/24 08:35:16;;;;;;;6.42;4.62;;;;;;;13.16;56.40;98118.20;1748169;82;21540;-40
2022/04/24 08:37:44;;;;;;;4.78;4.33;;;;;;;13.29;55.24;98123.77;1748000;82;21441;-39
2022/04/24 08:40:12;;;;;;;6.97;5.10;;;;;;;13.34;55.43;98119.80;1748011;82;21491;-36
2022/04/24 08:42:40;;;;;;;5.17;4.17;;;;;;;13.44;55.50;98125.97;1747925;82;20988;-37
2022/04/24 08:45:12;;;;;;;4.95;3.90;;;;;;;13.52;54.15;98120.52;1748028;82;21055;-40
2022/04/24 08:47:38;;;;;;;5.30;3.65;;;;;;;13.54;53.35;98109.33;1748099;82;21007;-40
2022/04/24 08:50:06;;;;;;;6.08;3.90;;;;;;;13.64;53.38;98111.51;1748029;82;20995;-38
2022/04/24 08:52:33;;;;;;;8.28;4.17;;;;;;;13.70;52.12;98121.56;1748043;82;20975;-39
2022/04/24 08:55:00;;;;;;;5.70;3.72;;;;;;;13.77;52.36;98112.13;1748214;82;20975;-39
2022/04/24 08:57:26;;;;;;;3.72;3.30;;;;;;;13.95;52.42;98116.76;1747916;82;21003;-37
2022/04/24 08:59:54;;;;;;;4.58;3.70;;;;;;;14.15;52.73;98113.21;1748300;82;21038;-38
2022/04/24 09:02:21;;;;;;;5.35;3.10;;;;;;;14.36;52.62;98110.44;1747186;82;21191;-38
2022/04/24 09:04:47;;;;;;;7.03;4.80;;;;;;;14.57;51.84;98116.97;1748110;82;20976;-38
2022/04/24 09:07:17;;;;;;;3.67;2.87;;;;;;;14.81;51.79;98121.47;1748274;82;21539;-37
2022/04/24 09:09:45;;;;;;;2.80;2.60;;;;;;;15.05;49.49;98125.02;1747381;82;21028;-37
2022/04/24 09:12:17;;;;;;;4.95;2.83;;;;;;;15.13;48.18;98135.72;1748003;82;20991;-39
2022/04/24 09:14:50;;;;;;;4.20;2.80;;;;;;;15.26;49.26;98135.42;1747971;82;20983;-38
2022/04/24 09:17:25;;;;;;;6.45;3.80;;;;;;;15.46;48.44;98130.91;1746710;82;21055;-39
2022/04/24 09:19:53;;;;;;;4.95;3.30;;;;;;;15.92;49.98;98131.89;1748008;82;21512;-40
2022/04/24 09:22:22;;;;;;;;;;;;;;;16.47;49.41;98142.44;1750572;82;20968;-38
2022/04/24 09:24:57;;;;;;;6.80;3.20;;;;;;;17.01;44.74;98141.64;1748024;82;20118;-39
2022/04/24 09:27:30;;;;;;;6.20;3.35;;;;;;;17.92;48.18;98138.56;1776419;81;21042;-40
2022/04/24 09:30:00;;;;;;;6.03;3.20;;;;;;;18.66;45.92;98141.91;1807435;79;20972;-40
2022/04/24 09:32:29;;;;;;;4.42;2.60;;;;;;;19.25;44.87;98144.47;1810581;79;20995;-47
2022/04/24 09:34:57;;;;;;;3.17;2.72;;;;;;;19.20;42.99;98142.80;1810625;79;21027;-41
2022/04/24 09:37:24;;;;;;;6.15;3.10;;;;;;;19.54;42.27;98136.74;1810517;79;21325;-40
2022/04/24 09:39:52;;;;;;;;;;;;;;;19.97;43.38;98130.30;1813239;79;21054;-40
2022/04/24 09:42:20;;;;;;;5.28;2.27;;;;;;;20.29;40.19;98127.98;1810001;79;20422;-39
2022/04/24 09:44:52;;;;;;;2.75;2.17;;;;;;;21.02;37.74;98130.67;1803672;79;21055;-41
2022/04/24 09:47:24;;;;;;;2.40;2.12;;;;;;;21.71;39.76;98132.89;1801943;79;21558;-39
2022/04/24 09:49:52;;;;;;;10.98;2.20;;;;;;;22.34;39.36;98130.61;1802034;79;21568;-37
2022/04/24 09:52:19;;;;;;;;;;;;;;;22.77;35.27;98136.84;1805935;79;20999;-40
2022/04/24 09:54:51;;;;;;;4.05;1.70;;;;;;;22.91;29.95;98136.98;1803288;79;20111;-42
2022/04/24 09:57:21;;;;;;;2.52;1.70;;;;;;;23.63;34.24;98142.64;1803465;79;20983;-40
2022/04/24 09:59:48;;;;;;;4.30;1.67;;;;;;;24.11;31.65;98140.54;1803270;79;20993;-41
2022/04/24 10:02:19;;;;;;;1.67;1.57;;;;;;;23.91;31.04;98138.58;1803233;79;20976;-40
2022/04/24 10:04:46;;;;;;;2.50;2.02;;;;;;;23.73;31.95;98148.98;1803219;79;20991;-38
2022/04/24 10:07:19;;;;;;;2.17;1.98;;;;;;;23.77;30.83;98148.89;1803385;79;21027;-40
2022/04/24 10:09:46;;;;;;;1.70;1.60;;;;;;;24.38;29.77;98140.13;1803308;79;21014;-42
2022/04/24 10:12:18;;;;;;;4.78;2.30;;;;;;;24.83;30.54;98133.75;1803292;79;20996;-39
2022/04/24 10:14:55;;;;;;;1.85;1.75;;;;;;;25.28;30.71;98139.37;1803161;79;20999;-38
2022/04/24 10:18:00;;;;;;;2.17;2.00;;;;;;;25.19;28.89;98139.77;1803338;79;20968;-43
2022/04/24 10:20:53;;;;;;;3.33;2.00;;;;;;;25.67;29.86;98134.98;1803358;79;20976;-41
2022/04/24 10:23:35;;;;;;;4.62;2.05;;;;;;;25.25;28.84;98135.77;1803339;79;21011;-37
2022/04/24 10:26:03;;;;;;;2.10;1.90;;;;;;;25.77;27.71;98127.81;1803207;79;21449;-38
2022/04/24 10:28:38;;;;;;;2.00;1.90;;;;;;;26.46;27.01;98110.67;1803160;79;20988;-38
2022/04/24 10:31:06;;;;;;;2.05;1.95;;;;;;;26.36;26.40;98100.38;1803367;79;21015;-38
2022/04/24 10:33:34;;;;;;;2.55;1.80;;;;;;;26.24;26.83;98101.56;1803259;79;21026;-44
2022/04/24 10:36:13;;;;;;;2.10;1.90;;;;;;;27.07;26.37;98107.06;1803220;79;20983;-38
2022/04/24 10:38:57;;;;;;;1.65;1.50;;;;;;;26.98;25.95;98099.27;1803166;79;20983;-43
2022/04/24 10:41:29;;;;;;;3.62;2.10;;;;;;;27.05;25.28;98097.87;1802541;79;21008;-39
2022/04/24 10:43:58;;;;;;;3.52;2.08;;;;;;;27.31;24.55;98096.01;1802996;79;20984;-40
2022/04/24 10:46:30;;;;;;;2.50;2.05;;;;;;;27.29;24.32;98086.78;1801087;79;20984;-37
2022/04/24 10:49:16;;;;;;;4.92;2.25;;;;;;;27.99;25.71;98086.16;1803129;79;21030;-37
2022/04/24 10:51:45;;;;;;;2.50;2.25;;;;;;;27.97;23.85;98073.41;1803154;79;20991;-42
2022/04/24 10:54:16;;;;;;;3.77;1.70;;;;;;;28.39;23.20;98074.82;1803135;79;20991;-41
2022/04/24 10:56:50;;;;;;;2.20;2.00;;;;;;;28.03;23.71;98070.60;1803111;79;21035;-37
2022/04/24 10:59:16;;;;;;;1.90;1.80;;;;;;;27.72;23.99;98066.17;1802097;79;20984;-39
2022/04/24 11:01:58;;;;;;;2.47;1.70;;;;;;;27.76;23.96;98064.16;1803143;79;20972;-40
2022/04/24 11:04:25;;;;;;;1.60;1.50;;;;;;;28.34;23.81;98057.42;1802882;79;20988;-40
2022/04/24 11:07:05;;;;;;;3.70;1.70;;;;;;;28.19;23.46;98055.64;1803090;79;21026;-40
2022/04/24 11:09:39;;;;;;;2.50;1.77;;;;;;;28.61;23.39;98059.73;1800160;79;21063;-40
2022/04/24 11:12:08;;;;;;;2.35;2.08;;;;;;;29.04;21.31;98058.64;1799991;79;21171;-37
2022/04/24 11:14:35;;;;;;;1.70;1.60;;;;;;;29.78;22.08;98051.41;1802491;79;21015;-45
2022/04/24 11:17:05;;;;;;;1.95;1.80;;;;;;;29.47;21.13;98049.37;1801694;79;21039;-36
2022/04/24 11:19:35;;;;;;;2.25;2.00;;;;;;;29.29;21.09;98042.73;1802805;79;21298;-40
2022/04/24 11:22:12;;;;;;;2.92;1.60;;;;;;;28.71;21.78;98037.02;1803247;79;21195;-41
2022/04/24 11:24:40;;;;;;;1.98;1.75;;;;;;;28.92;21.71;98034.80;1801968;79;21558;-40
2022/04/24 11:27:13;;;;;;;1.72;1.60;;;;;;;28.66;20.94;98042.30;1802311;79;21065;-39
2022/04/24 11:29:43;;;;;;;1.65;1.55;;;;;;;28.61;21.41;98021.88;1803357;79;21008;-37
2022/04/24 11:32:11;;;;;;;1.82;1.65;;;;;;;28.18;21.42;98019.37;1803060;79;21577;-38
2022/04/24 11:34:38;;;;;;;8.98;2.50;;;;;;;26.77;22.97;98009.28;1803353;79;20984;-38
2022/04/24 11:37:09;;;;;;;1.92;1.82;;;;;;;26.24;24.06;98002.39;1802393;79;21160;-39
2022/04/24 11:39:39;;;;;;;6.60;1.87;;;;;;;26.56;24.30;98007.75;1802355;79;21476;-39